createdAt,value
2023-05-10T00:01:14.903Z,1.60
2023-05-10T00:03:41.498Z,1.60
2023-05-10T00:06:08.047Z,1.60
2023-05-10T00:08:34.339Z,1.50
2023-05-10T00:11:01.050Z,1.90
2023-05-10T00:13:27.800Z,1.50
2023-05-10T00:15:54.123Z,1.60
2023-05-10T00:18:20.594Z,1.90
2023-05-10T00:20:46.847Z,1.70
2023-05-10T00:23:13.055Z,1.60
2023-05-10T00:25:39.212Z,1.50
2023-05-10T00:28:05.515Z,1.70
2023-05-10T00:30:31.830Z,1.70
2023-05-10T00:32:58.295Z,1.80
2023-05-10T00:35:24.822Z,1.80
2023-05-10T00:37:51.075Z,1.60
2023-05-10T00:40:17.333Z,1.60
2023-05-10T00:42:46.637Z,1.70
2023-05-10T00:45:13.031Z,2.00
2023-05-10T00:47:40.494Z,1.50
2023-05-10T00:50:07.109Z,1.70
2023-05-10T00:52:33.834Z,1.50
2023-05-10T00:55:00.213Z,1.60
2023-05-10T00:57:26.515Z,1.70
2023-05-10T00:59:52.714Z,1.40
2023-05-10T01:02:18.978Z,1.70
2023-05-10T01:04:45.394Z,1.70
2023-05-10T01:07:11.777Z,1.50
2023-05-10T01:09:38.139Z,1.40
2023-05-10T01:12:07.232Z,1.50
2023-05-10T01:14:36.520Z,1.90
2023-05-10T01:17:03.331Z,1.70
2023-05-10T01:19:30.016Z,1.60
2023-05-10T01:22:05.383Z,1.50
2023-05-10T01:25:04.560Z,1.50
2023-05-10T01:27:37.289Z,1.40
2023-05-10T01:33:25.198Z,1.40
2023-05-10T01:36:11.615Z,1.30
2023-05-10T01:38:51.048Z,1.70
2023-05-10T01:42:03.029Z,1.80
2023-05-10T01:44:32.119Z,1.40
2023-05-10T01:47:01.963Z,1.30
2023-05-10T01:49:31.226Z,1.60
2023-05-10T01:52:01.016Z,1.40
2023-05-10T01:54:27.176Z,1.60
2023-05-10T01:56:57.545Z,1.70
2023-05-10T01:59:23.744Z,1.70
2023-05-10T02:01:49.939Z,1.60
2023-05-10T02:04:17.473Z,2.10
2023-05-10T02:06:44.029Z,1.50
2023-05-10T02:09:11.037Z,1.70
2023-05-10T02:11:40.398Z,1.80
2023-05-10T02:14:08.477Z,2.10
2023-05-10T02:16:35.556Z,1.60
2023-05-10T02:19:01.982Z,2.00
2023-05-10T02:21:28.592Z,2.10
2023-05-10T02:23:54.855Z,1.80
2023-05-10T02:26:21.401Z,2.00
2023-05-10T02:28:48.538Z,2.30
2023-05-10T02:31:14.973Z,2.10
2023-05-10T02:33:41.264Z,1.90
2023-05-10T02:36:08.218Z,2.00
2023-05-10T02:38:36.633Z,2.00
2023-05-10T02:41:03.323Z,3.80
2023-05-10T02:43:29.754Z,2.00
2023-05-10T02:45:56.142Z,1.80
2023-05-10T02:48:22.423Z,2.30
2023-05-10T02:50:51.610Z,1.80
2023-05-10T02:53:28.084Z,2.30
2023-05-10T02:55:54.355Z,1.60
2023-05-10T02:58:21.213Z,2.00
2023-05-10T03:00:47.403Z,2.00
2023-05-10T03:03:13.553Z,1.90
2023-05-10T03:05:39.728Z,1.80
2023-05-10T03:08:06.508Z,1.60
2023-05-10T03:10:33.525Z,1.70
2023-05-10T03:13:27.207Z,1.90
2023-05-10T03:16:03.003Z,1.80
2023-05-10T03:18:33.762Z,1.70
2023-05-10T03:21:05.545Z,1.60
2023-05-10T03:23:36.087Z,2.10
2023-05-10T03:26:02.446Z,1.80
2023-05-10T03:28:29.559Z,1.50
2023-05-10T03:30:55.971Z,1.80
2023-05-10T03:33:23.076Z,1.90
2023-05-10T03:35:49.472Z,1.90
2023-05-10T03:38:15.792Z,1.60
2023-05-10T03:40:42.022Z,1.70
2023-05-10T03:43:08.463Z,1.80
2023-05-10T03:45:35.078Z,1.60
2023-05-10T03:48:01.627Z,1.50
2023-05-10T03:50:28.055Z,1.50
2023-05-10T03:52:54.818Z,1.80
2023-05-10T03:55:21.463Z,1.70
2023-05-10T03:57:49.849Z,1.50
2023-05-10T04:00:16.700Z,1.50
2023-05-10T04:02:43.989Z,2.10
2023-05-10T04:05:16.507Z,1.60
2023-05-10T04:07:44.602Z,1.70
2023-05-10T04:10:11.780Z,1.80
2023-05-10T04:12:39.107Z,1.80
2023-05-10T04:15:06.893Z,1.60
2023-05-10T04:17:34.236Z,1.60
2023-05-10T04:20:00.880Z,1.80
2023-05-10T04:22:28.157Z,1.70
2023-05-10T04:24:54.328Z,1.70
2023-05-10T04:27:20.606Z,1.80
2023-05-10T04:29:47.017Z,1.70
2023-05-10T04:32:13.512Z,1.60
2023-05-10T04:34:39.817Z,1.50
2023-05-10T04:37:06.750Z,1.60
2023-05-10T04:39:34.118Z,1.40
2023-05-10T04:42:00.281Z,1.60
2023-05-10T04:44:26.534Z,1.70
2023-05-10T04:46:52.645Z,1.60
2023-05-10T04:49:18.841Z,1.50
2023-05-10T04:51:45.085Z,1.70
2023-05-10T04:54:11.347Z,1.60
2023-05-10T04:56:37.698Z,1.30
2023-05-10T04:59:04.053Z,1.50
2023-05-10T05:01:30.442Z,1.30
2023-05-10T05:03:56.894Z,1.10
2023-05-10T05:08:04.918Z,1.20
2023-05-10T05:10:32.124Z,1.30
2023-05-10T05:12:59.182Z,1.50
2023-05-10T05:15:26.130Z,1.30
2023-05-10T05:17:53.368Z,1.30
2023-05-10T05:20:20.553Z,1.20
2023-05-10T05:22:48.129Z,1.30
2023-05-10T05:25:16.569Z,1.20
2023-05-10T05:27:43.844Z,1.30
2023-05-10T05:30:12.312Z,1.40
2023-05-10T05:32:39.661Z,1.30
2023-05-10T05:35:07.471Z,1.70
2023-05-10T05:37:35.187Z,1.30
2023-05-10T05:40:02.970Z,1.60
2023-05-10T05:42:30.634Z,1.50
2023-05-10T05:44:57.994Z,1.30
2023-05-10T05:47:25.083Z,1.40
2023-05-10T05:49:52.384Z,1.30
2023-05-10T05:52:19.470Z,1.30
2023-05-10T05:54:46.695Z,1.20
2023-05-10T05:57:13.795Z,1.20
2023-05-10T05:59:44.914Z,1.30
2023-05-10T06:02:12.517Z,1.10
2023-05-10T06:04:41.558Z,1.20
2023-05-10T06:07:10.152Z,1.30
2023-05-10T06:09:37.280Z,1.10
2023-05-10T06:12:04.635Z,1.20
2023-05-10T06:14:31.870Z,1.10
2023-05-10T06:17:01.033Z,1.30
2023-05-10T06:19:28.604Z,1.30
2023-05-10T06:21:55.908Z,1.30
2023-05-10T06:24:23.155Z,1.00
2023-05-10T06:26:51.263Z,1.10
2023-05-10T06:29:19.177Z,1.00
2023-05-10T06:31:46.910Z,1.00
2023-05-10T06:34:14.917Z,0.90
2023-05-10T06:36:42.396Z,1.00
2023-05-10T06:39:09.682Z,1.40
2023-05-10T06:41:37.025Z,1.10
2023-05-10T06:44:04.875Z,1.10
2023-05-10T06:46:32.245Z,1.10
2023-05-10T06:48:59.437Z,1.10
2023-05-10T06:51:27.256Z,1.00
2023-05-10T06:53:54.556Z,1.30
2023-05-10T06:56:22.765Z,1.00
2023-05-10T06:58:50.435Z,1.30
2023-05-10T07:01:17.668Z,1.40
2023-05-10T07:03:45.067Z,1.00
2023-05-10T07:06:21.758Z,1.10
2023-05-10T07:08:53.432Z,1.30
2023-05-10T07:11:20.484Z,1.20
2023-05-10T07:13:47.929Z,1.20
2023-05-10T07:16:15.137Z,1.10
2023-05-10T07:25:15.645Z,1.10
2023-05-10T07:27:42.987Z,1.10
2023-05-10T07:30:11.181Z,1.00
2023-05-10T07:32:38.688Z,1.20
2023-05-10T07:35:06.636Z,1.30
2023-05-10T07:37:33.981Z,0.80
2023-05-10T07:40:01.940Z,0.90
2023-05-10T07:42:29.506Z,0.90
2023-05-10T07:44:56.571Z,0.90
2023-05-10T07:47:24.826Z,1.00
2023-05-10T07:49:52.224Z,0.90
2023-05-10T08:00:00.428Z,0.60
2023-05-10T08:02:28.041Z,0.70
2023-05-10T08:04:57.097Z,0.70
2023-05-10T08:07:25.632Z,0.90
2023-05-10T08:09:53.964Z,1.00
2023-05-10T08:12:21.512Z,0.70
2023-05-10T08:14:48.518Z,0.80
2023-05-10T08:17:16.241Z,0.70
2023-05-10T08:26:12.492Z,0.80
2023-05-10T08:28:39.934Z,1.10
2023-05-10T08:31:07.183Z,0.80
2023-05-10T08:33:34.500Z,1.00
2023-05-10T08:36:01.702Z,0.80
2023-05-10T08:38:29.036Z,0.80
2023-05-10T08:41:00.400Z,0.90
2023-05-10T08:43:29.333Z,0.90
2023-05-10T08:45:57.892Z,0.90
2023-05-10T08:48:26.109Z,1.00
2023-05-10T08:50:56.568Z,0.90
2023-05-10T08:53:25.939Z,0.70
2023-05-10T08:55:53.168Z,0.80
2023-05-10T08:58:21.030Z,1.00
2023-05-10T09:00:50.100Z,0.80
2023-05-10T09:03:17.444Z,0.80
2023-05-10T09:05:45.880Z,0.60
2023-05-10T09:08:14.045Z,1.10
2023-05-10T09:10:42.593Z,1.10
2023-05-10T09:13:09.926Z,1.00
2023-05-10T09:15:37.383Z,0.70
2023-05-10T09:18:05.134Z,0.70
2023-05-10T09:20:32.505Z,0.80
2023-05-10T09:22:59.755Z,0.80
2023-05-10T09:25:26.704Z,0.90
2023-05-10T09:27:54.164Z,0.80
2023-05-10T09:30:26.723Z,0.90
2023-05-10T09:32:53.807Z,1.00
2023-05-10T09:42:32.135Z,0.90
2023-05-10T09:45:04.878Z,0.80
2023-05-10T09:47:36.153Z,1.10
2023-05-10T09:50:04.780Z,0.80
2023-05-10T09:52:32.571Z,1.10
2023-05-10T09:55:00.270Z,0.70
2023-05-10T09:57:27.861Z,1.30
2023-05-10T09:59:55.521Z,0.80
2023-05-10T10:02:22.791Z,0.90
2023-05-10T10:04:50.616Z,0.70
2023-05-10T10:07:18.631Z,1.20
2023-05-10T10:09:45.976Z,0.80
2023-05-10T10:12:13.102Z,0.80
2023-05-10T10:14:40.492Z,0.80
2023-05-10T10:17:09.097Z,1.10
2023-05-10T10:19:37.294Z,1.00
2023-05-10T10:22:05.371Z,1.10
2023-05-10T10:24:32.554Z,1.20
2023-05-10T10:27:40.234Z,1.00
2023-05-10T10:30:44.965Z,1.10
2023-05-10T10:33:49.897Z,1.50
2023-05-10T10:36:17.355Z,1.10
2023-05-10T10:38:47.675Z,1.20
2023-05-10T10:41:37.814Z,0.90
2023-05-10T10:44:26.460Z,1.10
2023-05-10T10:47:31.357Z,1.20
2023-05-10T10:50:01.880Z,1.30
2023-05-10T10:52:34.383Z,1.10
2023-05-10T10:55:11.600Z,0.90
2023-05-10T10:57:42.300Z,1.00
2023-05-10T11:00:23.064Z,0.90
2023-05-10T11:03:10.322Z,1.20
2023-05-10T11:05:48.367Z,1.00
2023-05-10T11:08:17.534Z,0.90
2023-05-10T11:10:53.356Z,1.00
2023-05-10T11:13:33.887Z,0.70
2023-05-10T11:16:20.834Z,0.90
2023-05-10T11:19:09.465Z,0.80
2023-05-10T11:21:46.616Z,0.90
2023-05-10T11:24:21.703Z,0.70
2023-05-10T11:26:51.382Z,0.90
2023-05-10T11:29:20.080Z,0.80
2023-05-10T11:31:48.274Z,0.90
2023-05-10T11:34:25.018Z,0.90
2023-05-10T11:36:53.003Z,0.60
2023-05-10T11:39:20.116Z,0.70
2023-05-10T11:41:49.941Z,0.90
2023-05-10T11:44:17.309Z,0.70
2023-05-10T11:46:45.301Z,0.80
2023-05-10T11:49:14.589Z,0.80
2023-05-10T11:51:43.563Z,0.80
2023-05-10T11:54:11.790Z,0.80
2023-05-10T12:03:36.648Z,0.80
2023-05-10T12:06:04.267Z,0.90
2023-05-10T12:08:32.101Z,0.70
2023-05-10T12:11:09.454Z,1.00
2023-05-10T12:13:44.319Z,0.70
2023-05-10T12:16:19.283Z,0.80
2023-05-10T12:18:49.385Z,0.90
2023-05-10T12:21:16.350Z,0.60
2023-05-10T12:23:43.664Z,0.60
2023-05-10T12:26:11.383Z,0.80
2023-05-10T12:28:38.368Z,0.60
2023-05-10T12:31:07.433Z,0.60
2023-05-10T12:33:44.764Z,0.80
2023-05-10T12:36:13.695Z,0.70
2023-05-10T12:38:46.428Z,0.60
2023-05-10T12:41:16.571Z,0.80
2023-05-10T12:43:43.548Z,1.00
2023-05-10T12:46:15.491Z,0.70
2023-05-10T12:48:43.877Z,0.70
2023-05-10T12:57:29.193Z,1.00
2023-05-10T12:59:56.934Z,0.90
2023-05-10T13:02:24.364Z,1.10
2023-05-10T13:04:51.691Z,1.00
2023-05-10T13:07:18.996Z,1.00
2023-05-10T13:09:46.223Z,1.10
2023-05-10T13:12:13.585Z,0.60
2023-05-10T13:14:41.685Z,1.00
2023-05-10T13:17:08.890Z,0.60
2023-05-10T13:19:36.282Z,0.80
2023-05-10T13:22:03.942Z,0.70
2023-05-10T13:24:31.217Z,0.80
2023-05-10T13:26:59.055Z,0.80
2023-05-10T13:29:26.419Z,0.80
2023-05-10T13:31:53.588Z,0.70
2023-05-10T13:34:21.781Z,0.80
2023-05-10T13:36:49.918Z,0.90
2023-05-10T13:39:17.156Z,0.80
2023-05-10T13:41:44.364Z,0.60
2023-05-10T13:44:15.779Z,0.70
2023-05-10T13:46:43.536Z,0.80
2023-05-10T13:49:10.758Z,0.70
2023-05-10T13:51:37.937Z,0.70
2023-05-10T13:54:04.815Z,0.70
2023-05-10T13:56:38.159Z,0.90
2023-05-10T13:59:05.880Z,0.70
2023-05-10T14:01:33.183Z,0.80
2023-05-10T14:04:01.473Z,0.80
2023-05-10T14:06:29.754Z,1.00
2023-05-10T14:08:57.695Z,0.70
2023-05-10T14:11:25.048Z,0.90
2023-05-10T14:13:52.493Z,0.90
2023-05-10T14:16:21.502Z,0.90
2023-05-10T14:18:49.169Z,0.90
2023-05-10T14:21:16.522Z,0.80
2023-05-10T14:23:43.592Z,1.00
2023-05-10T14:26:10.645Z,0.80
2023-05-10T14:28:37.977Z,0.80
2023-05-10T14:31:05.020Z,0.90
2023-05-10T14:33:32.358Z,0.90
2023-05-10T14:36:00.683Z,1.00
2023-05-10T14:38:27.718Z,1.20
2023-05-10T14:40:54.745Z,1.30
2023-05-10T14:43:22.199Z,1.20
2023-05-10T14:45:49.481Z,1.30
2023-05-10T14:48:18.587Z,1.10
2023-05-10T14:50:46.288Z,1.20
2023-05-10T14:53:35.888Z,1.00
2023-05-10T14:56:03.997Z,1.00
2023-05-10T14:58:34.539Z,1.10
2023-05-10T15:01:02.260Z,0.90
2023-05-10T15:03:30.509Z,0.90
2023-05-10T15:05:59.213Z,1.00
2023-05-10T15:08:27.166Z,0.90
2023-05-10T15:10:56.889Z,1.00
2023-05-10T15:13:25.045Z,0.90
2023-05-10T15:15:52.668Z,1.00
2023-05-10T15:18:20.163Z,1.50
2023-05-10T15:20:49.098Z,1.50
2023-05-10T15:30:57.573Z,1.50
2023-05-10T15:33:25.513Z,1.30
2023-05-10T15:35:52.466Z,1.40
2023-05-10T15:38:19.626Z,1.60
2023-05-10T15:40:46.864Z,1.40
2023-05-10T15:43:14.151Z,1.40
2023-05-10T15:45:41.752Z,1.20
2023-05-10T15:48:08.999Z,1.40
2023-05-10T15:50:36.262Z,1.50
2023-05-10T15:53:03.499Z,1.40
2023-05-10T15:55:31.049Z,1.60
2023-05-10T15:57:58.806Z,1.30
2023-05-10T16:00:26.280Z,1.30
2023-05-10T16:02:54.283Z,1.20
2023-05-10T16:05:22.645Z,1.40
2023-05-10T16:07:49.955Z,2.10
2023-05-10T16:10:17.229Z,1.70
2023-05-10T16:12:45.654Z,1.60
2023-05-10T16:15:13.017Z,1.80
2023-05-10T16:17:41.254Z,2.00
2023-05-10T16:20:09.513Z,2.10
2023-05-10T16:22:37.585Z,2.20
2023-05-10T16:25:05.770Z,2.30
2023-05-10T16:27:33.676Z,2.90
2023-05-10T16:30:00.881Z,3.30
2023-05-10T16:32:28.193Z,4.30
2023-05-10T16:34:55.401Z,4.00
2023-05-10T16:37:22.650Z,4.40
2023-05-10T16:39:49.741Z,4.00
2023-05-10T16:42:17.655Z,2.80
2023-05-10T16:44:45.201Z,2.00
2023-05-10T16:47:12.660Z,2.50
2023-05-10T16:49:39.762Z,1.90
2023-05-10T16:52:07.374Z,2.10
2023-05-10T16:54:35.276Z,2.40
2023-05-10T16:57:02.545Z,2.40
2023-05-10T16:59:29.758Z,1.90
2023-05-10T17:01:57.019Z,2.60
2023-05-10T17:04:25.064Z,2.00
2023-05-10T17:06:52.216Z,2.10
2023-05-10T17:09:20.741Z,2.40
2023-05-10T17:11:48.458Z,2.00
2023-05-10T17:14:15.826Z,2.00
2023-05-10T17:16:43.114Z,2.10
2023-05-10T17:19:10.439Z,2.30
2023-05-10T17:21:37.913Z,2.20
2023-05-10T17:25:47.039Z,2.30
2023-05-10T17:28:17.213Z,2.10
2023-05-10T17:30:45.047Z,2.60
2023-05-10T17:33:12.352Z,2.60
2023-05-10T17:35:39.517Z,2.50
2023-05-10T17:38:06.916Z,2.20
2023-05-10T17:40:34.726Z,2.50
2023-05-10T17:43:02.200Z,3.90
2023-05-10T17:45:29.689Z,2.30
2023-05-10T17:47:56.979Z,2.20
2023-05-10T17:50:25.273Z,2.10
2023-05-10T17:52:52.335Z,2.10
2023-05-10T17:55:19.699Z,2.30
2023-05-10T17:57:47.402Z,2.30
2023-05-10T18:00:16.255Z,2.20
2023-05-10T18:02:44.248Z,2.20
2023-05-10T18:05:12.757Z,2.20
2023-05-10T18:07:40.422Z,1.90
2023-05-10T18:10:08.307Z,2.00
2023-05-10T18:12:35.989Z,2.00
2023-05-10T18:15:03.463Z,1.70
2023-05-10T18:17:32.019Z,1.60
2023-05-10T18:19:59.196Z,2.00
2023-05-10T18:22:27.160Z,2.60
2023-05-10T18:24:54.093Z,1.90
2023-05-10T18:27:21.579Z,1.70
2023-05-10T18:29:48.587Z,2.30
2023-05-10T18:32:15.509Z,2.20
2023-05-10T18:34:42.653Z,1.80
2023-05-10T18:37:11.560Z,2.10
2023-05-10T18:39:38.744Z,2.30
2023-05-10T18:42:06.089Z,2.10
2023-05-10T18:44:33.096Z,2.40
2023-05-10T18:47:00.129Z,2.10
2023-05-10T18:49:27.932Z,2.20
2023-05-10T18:51:54.969Z,2.30
2023-05-10T18:54:21.952Z,2.10
2023-05-10T18:56:49.943Z,1.90
2023-05-10T18:59:16.790Z,1.90
2023-05-10T19:01:43.800Z,2.10
2023-05-10T19:04:11.006Z,1.80
2023-05-10T19:06:38.002Z,2.00
2023-05-10T19:09:04.882Z,1.80
2023-05-10T19:11:34.101Z,1.80
2023-05-10T19:14:01.658Z,2.00
2023-05-10T19:16:29.965Z,2.10
2023-05-10T19:18:57.623Z,1.90
2023-05-10T19:21:24.825Z,1.80
2023-05-10T19:23:52.269Z,1.90
2023-05-10T19:26:19.567Z,2.00
2023-05-10T19:28:46.856Z,1.80
2023-05-10T19:31:13.847Z,1.80
2023-05-10T19:33:41.031Z,1.60
2023-05-10T19:36:08.163Z,1.80
2023-05-10T19:38:35.485Z,1.80
2023-05-10T19:41:02.498Z,1.60
2023-05-10T19:43:32.720Z,1.50
2023-05-10T19:46:01.647Z,1.30
2023-05-10T19:48:28.880Z,1.50
2023-05-10T19:51:07.690Z,1.20
2023-05-10T19:53:36.859Z,1.20
2023-05-10T19:56:04.735Z,1.50
2023-05-10T19:58:32.646Z,1.30
2023-05-10T20:01:00.160Z,1.50
2023-05-10T20:03:30.218Z,1.30
2023-05-10T20:05:57.437Z,1.50
2023-05-10T20:08:25.352Z,1.50
2023-05-10T20:10:52.393Z,1.50
2023-05-10T20:13:20.095Z,1.70
2023-05-10T20:15:48.077Z,1.70
2023-05-10T20:18:15.266Z,1.70
2023-05-10T20:20:45.433Z,1.50
2023-05-10T20:23:12.518Z,1.50
2023-05-10T20:25:39.370Z,1.70
2023-05-10T20:28:08.504Z,1.70
2023-05-10T20:30:35.972Z,1.70
2023-05-10T20:33:04.373Z,1.50
2023-05-10T20:35:32.259Z,1.60
2023-05-10T20:38:00.151Z,1.60
2023-05-10T20:40:27.066Z,1.90
2023-05-10T20:42:54.206Z,1.80
2023-05-10T20:45:21.198Z,1.50
2023-05-10T20:47:48.658Z,1.80
2023-05-10T20:50:15.923Z,1.50
2023-05-10T20:52:42.948Z,1.70
2023-05-10T20:55:10.054Z,1.60
2023-05-10T20:57:37.272Z,1.50
2023-05-10T21:00:05.717Z,1.50
2023-05-10T21:02:33.023Z,1.60
2023-05-10T21:04:59.954Z,1.60
2023-05-10T21:07:26.947Z,1.70
2023-05-10T21:09:53.900Z,1.70
2023-05-10T21:12:20.931Z,1.40
2023-05-10T21:14:47.984Z,1.50
2023-05-10T21:17:18.164Z,1.60
2023-05-10T21:19:46.816Z,1.60
2023-05-10T21:22:13.934Z,1.50
2023-05-10T21:24:40.984Z,1.60
2023-05-10T21:27:09.079Z,1.80
2023-05-10T21:29:36.092Z,1.60
2023-05-10T21:32:03.083Z,1.30
2023-05-10T21:34:30.320Z,1.40
2023-05-10T21:36:57.288Z,1.40
2023-05-10T21:39:24.147Z,1.40
2023-05-10T21:41:51.064Z,1.50
2023-05-10T21:44:18.287Z,1.30
2023-05-10T21:46:45.482Z,1.40
2023-05-10T21:49:12.414Z,1.40
2023-05-10T21:51:39.425Z,1.40
2023-05-10T21:54:06.355Z,1.60
2023-05-10T21:56:33.202Z,1.50
2023-05-10T21:59:00.203Z,1.30
2023-05-10T22:01:27.415Z,1.40
2023-05-10T22:03:54.542Z,1.80
2023-05-10T22:06:21.693Z,1.60
2023-05-10T22:08:48.658Z,1.40
2023-05-10T22:11:15.472Z,1.50
2023-05-10T22:13:42.554Z,1.30
2023-05-10T22:16:09.788Z,1.40
2023-05-10T22:18:36.646Z,1.40
2023-05-10T22:21:03.759Z,1.50
2023-05-10T22:23:30.767Z,1.50
2023-05-10T22:26:04.039Z,1.90
2023-05-10T22:28:30.953Z,1.70
2023-05-10T22:30:58.085Z,1.60
2023-05-10T22:33:25.115Z,1.50
2023-05-10T22:35:52.190Z,1.60
2023-05-10T22:38:19.230Z,1.50
2023-05-10T22:40:46.242Z,1.80
2023-05-10T22:43:13.182Z,1.30
2023-05-10T22:45:40.507Z,1.40
2023-05-10T22:48:08.526Z,1.80
2023-05-10T22:50:37.199Z,1.30
2023-05-10T22:53:04.110Z,1.50
2023-05-10T22:55:31.252Z,1.20
2023-05-10T22:57:58.093Z,1.70
2023-05-10T23:00:25.045Z,1.20
2023-05-10T23:02:52.122Z,1.70
2023-05-10T23:05:19.340Z,1.60
2023-05-10T23:07:48.590Z,1.60
2023-05-10T23:10:15.520Z,1.70
2023-05-10T23:12:42.531Z,1.50
2023-05-10T23:15:10.128Z,1.50
2023-05-10T23:17:37.964Z,1.50
2023-05-10T23:20:05.393Z,1.30
2023-05-10T23:22:32.522Z,1.40
2023-05-10T23:24:59.400Z,1.40
2023-05-10T23:27:29.716Z,1.50
2023-05-10T23:29:57.225Z,1.50
2023-05-10T23:32:24.454Z,1.20
2023-05-10T23:34:51.439Z,1.50
2023-05-10T23:37:18.310Z,1.40
2023-05-10T23:39:45.330Z,1.60
2023-05-10T23:42:13.054Z,1.40
2023-05-10T23:44:39.931Z,1.60
2023-05-10T23:47:07.196Z,1.60
2023-05-10T23:49:34.094Z,1.50
2023-05-10T23:52:01.317Z,1.60
2023-05-10T23:54:28.605Z,1.50
2023-05-10T23:56:55.446Z,1.50
2023-05-10T23:59:22.370Z,1.40
